Seabourn Odyssey — C6XC6 — position and weather

sailwx.info

Track history (hours):
 
Tides and Currents Weather Stations Pressure Air Temp Water Temp Dewpoint Dewpoint Depression Visibility Wind Speed Wind Dir Waves Ship Positions

Seabourn Odyssey

Last reported at 2019-Feb-21 10:40 UTC. Time now 2019-Feb-23 22:49 UTC.
Position N 14°01' W 061°00'.

Length 198 m; draft 6.7 m.

Type: Ship. MMSI: 309416000.

Date/timePositionNaut miles runAvg speedWind from/ knotsBaromVisibWave heightAir tempDewpointWater temp
2019-Feb-21 10:40N 14°01' W 061°00'610.6
2019-Feb-21 10:07N 14°05' W 061°05'912.6
2019-Feb-21 09:22N 14°11' W 061°12'2213.3
2019-Feb-21 07:43N 14°30' W 061°23'312.7
2019-Feb-21 07:30N 14°33' W 061°24'713.5
2019-Feb-21 06:57N 14°40' W 061°27'  
2019-Feb-19 02:42N 17°48' W 062°55'1 4.6
2019-Feb-19 02:27N 17°48' W 062°56'3 5.6
2019-Feb-19 01:56N 17°49' W 062°59'2 5.4
2019-Feb-19 01:30N 17°51' W 063°01'3 5.9
2019-Feb-19 00:58N 17°53' W 063°03'3 5.7
2019-Feb-19 00:30N 17°55' W 063°05'3 5.8
2019-Feb-19 00:00N 17°56' W 063°08'3 5.8
2019-Feb-18 23:29N 17°58' W 063°10'4 6.0
2019-Feb-18 22:50N 18°01' W 063°12'2 6.8
2019-Feb-18 22:30N 18°04' W 063°12'4 6.9
2019-Feb-18 21:56N 18°08' W 063°12'3 6.9
2019-Feb-18 21:29N 18°11' W 063°11'5 8.4
2019-Feb-18 20:53N 18°12' W 063°07'0 0.0
2019-Feb-18 13:47N 18°12' W 063°07'0 0.0
2019-Feb-18 10:32N 18°12' W 063°07'2 4.5
2019-Feb-18 10:07N 18°14' W 063°07'2 6.7
2019-Feb-18 09:50N 18°13' W 063°09'2 6.7
2019-Feb-18 09:28N 18°13' W 063°11'3 6.6
2019-Feb-18 09:00N 18°11' W 063°14'3 6.5
2019-Feb-18 08:29N 18°09' W 063°17'3 6.6
2019-Feb-18 07:58N 18°07' W 063°20'3 6.7
2019-Feb-18 07:28N 18°05' W 063°23'4 7.0
2019-Feb-18 06:56N 18°01' W 063°24'4 7.3
2019-Feb-18 06:28N 17°58' W 063°23'3 7.3
2019-Feb-18 06:00N 17°55' W 063°21'4 7.1
2019-Feb-18 05:30N 17°52' W 063°18'4 7.1
2019-Feb-18 04:58N 17°50' W 063°16'3 7.0
2019-Feb-18 04:30N 17°47' W 063°13'3 6.9
2019-Feb-18 04:00N 17°45' W 063°11'4 7.0
2019-Feb-18 03:28N 17°42' W 063°08'3 6.9
2019-Feb-18 03:00N 17°40' W 063°06'4 7.3
2019-Feb-18 02:30N 17°36' W 063°07'5 7.2
2019-Feb-18 01:51N 17°31' W 063°07'18 6.8
2019-Feb-17 23:13N 17°17' W 062°55'4 7.4
2019-Feb-17 22:37N 17°15' W 062°51'1 7.4
2019-Feb-17 22:30N 17°15' W 062°50'5 7.5
2019-Feb-17 21:52N 17°15' W 062°45'2 0.2
2019-Feb-17 10:16N 17°15' W 062°43'2 7.2
2019-Feb-17 09:58N 17°15' W 062°46'34 6.4
2019-Feb-17 04:40N 17°47' W 062°59'1 7.0
2019-Feb-17 04:28N 17°48' W 062°60'3 6.8
2019-Feb-17 04:00N 17°51' W 063°01'4 7.0
2019-Feb-17 03:26N 17°54' W 063°03'3 7.0
2019-Feb-17 03:00N 17°57' W 063°04'3 1.5
2019-Feb-17 00:44N 18°01' W 063°03'0 0.0
2019-Feb-17 00:02N 18°01' W 063°03'0 0.0
2019-Feb-16 23:44N 18°01' W 063°03'0 0.0
2019-Feb-16 22:29N 18°01' W 063°03'0 0.0
2019-Feb-16 21:50N 18°01' W 063°03'0 0.0
2019-Feb-16 21:17N 18°01' W 063°03'0 0.0
2019-Feb-16 16:08N 18°01' W 063°03'0 0.0
2019-Feb-16 11:44N 18°01' W 063°03'2 1.8
2019-Feb-16 10:20N 17°60' W 063°05'2 4.7
2019-Feb-16 09:48N 17°59' W 063°08'2 5.5
2019-Feb-16 09:26N 17°60' W 063°09'3 6.5
2019-Feb-16 08:58N 18°01' W 063°12'3 6.5
2019-Feb-16 08:29N 18°02' W 063°15'3 6.6
2019-Feb-16 08:00N 18°04' W 063°18'3 6.4
2019-Feb-16 07:30N 18°05' W 063°21'3 6.4
2019-Feb-16 06:58N 18°07' W 063°25'5 6.5
2019-Feb-16 06:11N 18°09' W 063°29'62 8.5
2019-Feb-15 22:55N 18°32' W 064°30'7 7.6
2019-Feb-15 21:59N 18°29' W 064°37'4 7.6
2019-Feb-15 21:30N 18°27' W 064°40'5 9.4
2019-Feb-15 21:00N 18°26' W 064°45'0 0.4
2019-Feb-15 20:22N 18°26' W 064°45'0 0.0
2019-Feb-15 19:58N 18°26' W 064°45'0 0.0
2019-Feb-15 19:16N 18°26' W 064°45'0 0.0
2019-Feb-15 18:58N 18°26' W 064°45'0 0.0
2019-Feb-15 18:28N 18°26' W 064°45'0 0.0
2019-Feb-15 17:58N 18°26' W 064°45'0 0.0
2019-Feb-15 17:28N 18°26' W 064°45'0 0.0
2019-Feb-15 16:58N 18°26' W 064°45'0 0.0
2019-Feb-15 16:16N 18°26' W 064°45'0 0.0
2019-Feb-15 15:58N 18°26' W 064°45'0 0.0
2019-Feb-15 15:28N 18°26' W 064°45'0 0.0
2019-Feb-15 14:58N 18°26' W 064°45'0 0.0
2019-Feb-15 14:28N 18°26' W 064°45'0 0.0
2019-Feb-15 13:52N 18°26' W 064°45'0 0.0
2019-Feb-15 13:30N 18°26' W 064°45'1 1.7
2019-Feb-15 13:00N 18°26' W 064°46'0 0.1
2019-Feb-15 12:26N 18°26' W 064°46'0 0.0
2019-Feb-15 11:56N 18°26' W 064°46'0 0.0
2019-Feb-15 11:26N 18°26' W 064°46'0 0.0
2019-Feb-15 10:56N 18°26' W 064°46'0 0.0
2019-Feb-15 10:26N 18°26' W 064°46'1 1.4
2019-Feb-15 10:00N 18°26' W 064°46'3 5.7
2019-Feb-15 09:30N 18°29' W 064°46'714.0
2019-Feb-15 09:00N 18°30' W 064°39'713.6
2019-Feb-15 08:30N 18°31' W 064°32'1113.3
2019-Feb-15 07:42N 18°32' W 064°21'613.5
2019-Feb-15 07:16N 18°29' W 064°15'5113.4
2019-Feb-15 03:28N 17°60' W 063°32'713.7
2019-Feb-15 02:56N 17°56' W 063°25'613.4
2019-Feb-15 02:29N 17°52' W 063°20'613.4
2019-Feb-15 02:00N 17°48' W 063°15'713.2
2019-Feb-15 01:30N 17°44' W 063°09'613.0
2019-Feb-15 01:00N 17°38' W 063°08'31 2.1
2019-Feb-14 10:08N 17°16' W 062°45'1 4.9
2019-Feb-14 09:59N 17°16' W 062°46'36 5.7
2019-Feb-14 03:41N 17°50' W 062°56'5 6.3
2019-Feb-14 02:57N 17°55' W 062°55'1 0.0
2019-Feb-13 10:00N 17°55' W 062°54'4 7.0
2019-Feb-13 09:29N 17°51' W 062°55'4 7.7
2019-Feb-13 09:00N 17°48' W 062°55'5 7.6
2019-Feb-13 08:24N 17°43' W 062°55'15 9.1
2019-Feb-13 06:46N 17°28' W 062°54'1113.5
2019-Feb-13 05:57N 17°17' W 062°54'  
Track history (hours):
 
Tides and Currents Weather Stations Pressure Air Temp Water Temp Dewpoint Dewpoint Depression Visibility Wind Speed Wind Dir Waves Ship Positions

Seabourn Odyssey

Last reported at 2019-Feb-21 10:40 UTC. Time now 2019-Feb-23 22:49 UTC.
Position N 14°01' W 061°00'.

Length 198 m; draft 6.7 m.

Type: Ship. MMSI: 309416000.

Date/timePositionNaut miles runAvg speedWind from/ knotsBaromVisibWave heightAir tempDewpointWater temp
2019-Feb-21 10:40N 14°01' W 061°00'610.6
2019-Feb-21 10:07N 14°05' W 061°05'912.6
2019-Feb-21 09:22N 14°11' W 061°12'2213.3
2019-Feb-21 07:43N 14°30' W 061°23'312.7
2019-Feb-21 07:30N 14°33' W 061°24'713.5
2019-Feb-21 06:57N 14°40' W 061°27'  
2019-Feb-19 02:42N 17°48' W 062°55'1 4.6
2019-Feb-19 02:27N 17°48' W 062°56'3 5.6
2019-Feb-19 01:56N 17°49' W 062°59'2 5.4
2019-Feb-19 01:30N 17°51' W 063°01'3 5.9
2019-Feb-19 00:58N 17°53' W 063°03'3 5.7
2019-Feb-19 00:30N 17°55' W 063°05'3 5.8
2019-Feb-19 00:00N 17°56' W 063°08'3 5.8
2019-Feb-18 23:29N 17°58' W 063°10'4 6.0
2019-Feb-18 22:50N 18°01' W 063°12'2 6.8
2019-Feb-18 22:30N 18°04' W 063°12'4 6.9
2019-Feb-18 21:56N 18°08' W 063°12'3 6.9
2019-Feb-18 21:29N 18°11' W 063°11'5 8.4
2019-Feb-18 20:53N 18°12' W 063°07'0 0.0
2019-Feb-18 13:47N 18°12' W 063°07'0 0.0
2019-Feb-18 10:32N 18°12' W 063°07'2 4.5
2019-Feb-18 10:07N 18°14' W 063°07'2 6.7
2019-Feb-18 09:50N 18°13' W 063°09'2 6.7
2019-Feb-18 09:28N 18°13' W 063°11'3 6.6
2019-Feb-18 09:00N 18°11' W 063°14'3 6.5
2019-Feb-18 08:29N 18°09' W 063°17'3 6.6
2019-Feb-18 07:58N 18°07' W 063°20'3 6.7
2019-Feb-18 07:28N 18°05' W 063°23'4 7.0
2019-Feb-18 06:56N 18°01' W 063°24'4 7.3
2019-Feb-18 06:28N 17°58' W 063°23'3 7.3
2019-Feb-18 06:00N 17°55' W 063°21'4 7.1
2019-Feb-18 05:30N 17°52' W 063°18'4 7.1
2019-Feb-18 04:58N 17°50' W 063°16'3 7.0
2019-Feb-18 04:30N 17°47' W 063°13'3 6.9
2019-Feb-18 04:00N 17°45' W 063°11'4 7.0
2019-Feb-18 03:28N 17°42' W 063°08'3 6.9
2019-Feb-18 03:00N 17°40' W 063°06'4 7.3
2019-Feb-18 02:30N 17°36' W 063°07'5 7.2
2019-Feb-18 01:51N 17°31' W 063°07'18 6.8
2019-Feb-17 23:13N 17°17' W 062°55'4 7.4
2019-Feb-17 22:37N 17°15' W 062°51'1 7.4
2019-Feb-17 22:30N 17°15' W 062°50'5 7.5
2019-Feb-17 21:52N 17°15' W 062°45'2 0.2
2019-Feb-17 10:16N 17°15' W 062°43'2 7.2
2019-Feb-17 09:58N 17°15' W 062°46'34 6.4
2019-Feb-17 04:40N 17°47' W 062°59'1 7.0
2019-Feb-17 04:28N 17°48' W 062°60'3 6.8
2019-Feb-17 04:00N 17°51' W 063°01'4 7.0
2019-Feb-17 03:26N 17°54' W 063°03'3 7.0
2019-Feb-17 03:00N 17°57' W 063°04'3 1.5
2019-Feb-17 00:44N 18°01' W 063°03'0 0.0
2019-Feb-17 00:02N 18°01' W 063°03'0 0.0
2019-Feb-16 23:44N 18°01' W 063°03'0 0.0
2019-Feb-16 22:29N 18°01' W 063°03'0 0.0
2019-Feb-16 21:50N 18°01' W 063°03'0 0.0
2019-Feb-16 21:17N 18°01' W 063°03'0 0.0
2019-Feb-16 16:08N 18°01' W 063°03'0 0.0
2019-Feb-16 11:44N 18°01' W 063°03'2 1.8
2019-Feb-16 10:20N 17°60' W 063°05'2 4.7
2019-Feb-16 09:48N 17°59' W 063°08'2 5.5
2019-Feb-16 09:26N 17°60' W 063°09'3 6.5
2019-Feb-16 08:58N 18°01' W 063°12'3 6.5
2019-Feb-16 08:29N 18°02' W 063°15'3 6.6
2019-Feb-16 08:00N 18°04' W 063°18'3 6.4
2019-Feb-16 07:30N 18°05' W 063°21'3 6.4
2019-Feb-16 06:58N 18°07' W 063°25'5 6.5
2019-Feb-16 06:11N 18°09' W 063°29'62 8.5
2019-Feb-15 22:55N 18°32' W 064°30'7 7.6
2019-Feb-15 21:59N 18°29' W 064°37'4 7.6
2019-Feb-15 21:30N 18°27' W 064°40'5 9.4
2019-Feb-15 21:00N 18°26' W 064°45'0 0.4
2019-Feb-15 20:22N 18°26' W 064°45'0 0.0
2019-Feb-15 19:58N 18°26' W 064°45'0 0.0
2019-Feb-15 19:16N 18°26' W 064°45'0 0.0
2019-Feb-15 18:58N 18°26' W 064°45'0 0.0
2019-Feb-15 18:28N 18°26' W 064°45'0 0.0
2019-Feb-15 17:58N 18°26' W 064°45'0 0.0
2019-Feb-15 17:28N 18°26' W 064°45'0 0.0
2019-Feb-15 16:58N 18°26' W 064°45'0 0.0
2019-Feb-15 16:16N 18°26' W 064°45'0 0.0
2019-Feb-15 15:58N 18°26' W 064°45'0 0.0
2019-Feb-15 15:28N 18°26' W 064°45'0 0.0
2019-Feb-15 14:58N 18°26' W 064°45'0 0.0
2019-Feb-15 14:28N 18°26' W 064°45'0 0.0
2019-Feb-15 13:52N 18°26' W 064°45'0 0.0
2019-Feb-15 13:30N 18°26' W 064°45'1 1.7
2019-Feb-15 13:00N 18°26' W 064°46'0 0.1
2019-Feb-15 12:26N 18°26' W 064°46'0 0.0
2019-Feb-15 11:56N 18°26' W 064°46'0 0.0
2019-Feb-15 11:26N 18°26' W 064°46'0 0.0
2019-Feb-15 10:56N 18°26' W 064°46'0 0.0
2019-Feb-15 10:26N 18°26' W 064°46'1 1.4
2019-Feb-15 10:00N 18°26' W 064°46'3 5.7
2019-Feb-15 09:30N 18°29' W 064°46'714.0
2019-Feb-15 09:00N 18°30' W 064°39'713.6
2019-Feb-15 08:30N 18°31' W 064°32'1113.3
2019-Feb-15 07:42N 18°32' W 064°21'613.5
2019-Feb-15 07:16N 18°29' W 064°15'5113.4
2019-Feb-15 03:28N 17°60' W 063°32'713.7
2019-Feb-15 02:56N 17°56' W 063°25'613.4
2019-Feb-15 02:29N 17°52' W 063°20'613.4
2019-Feb-15 02:00N 17°48' W 063°15'713.2
2019-Feb-15 01:30N 17°44' W 063°09'613.0
2019-Feb-15 01:00N 17°38' W 063°08'31 2.1
2019-Feb-14 10:08N 17°16' W 062°45'1 4.9
2019-Feb-14 09:59N 17°16' W 062°46'36 5.7
2019-Feb-14 03:41N 17°50' W 062°56'5 6.3
2019-Feb-14 02:57N 17°55' W 062°55'1 0.0
2019-Feb-13 10:00N 17°55' W 062°54'4 7.0
2019-Feb-13 09:29N 17°51' W 062°55'4 7.7
2019-Feb-13 09:00N 17°48' W 062°55'5 7.6
2019-Feb-13 08:24N 17°43' W 062°55'15 9.1
2019-Feb-13 06:46N 17°28' W 062°54'1113.5
2019-Feb-13 05:57N 17°17' W 062°54'  

Dump ship's entire track history